Time;durP1;ratioP1;P1;durP2;ratioP2;P2;SDS_P1;SDS_P2;PMS_P1;PMS_P2;Temp;Humidity;BMP_temperature;BMP_pressure;BME280_temperature;BME280_humidity;BME280_pressure;Samples;Min_cycle;Max_cycle;Signal;HPM_P1;HPM_P2
2021/10/27 00:00:19;;;;;;;14.80;13.10;;;;;;;13.48;76.88;101473.31;5118859;28;20175;-68
2021/10/27 00:02:45;;;;;;;16.40;12.97;;;;;;;13.37;77.22;101477.59;5119353;28;20585;-67
2021/10/27 00:05:13;;;;;;;16.73;14.27;;;;;;;13.63;76.60;101475.19;5119198;28;20537;-67
2021/10/27 00:07:38;;;;;;;20.13;12.70;;;;;;;13.47;76.78;101476.78;5119311;28;20167;-70
2021/10/27 00:10:04;;;;;;;16.20;13.43;;;;;;;13.32;77.53;101474.88;5119317;28;20392;-67
2021/10/27 00:12:29;;;;;;;18.20;13.40;;;;;;;13.18;78.18;101480.81;5118391;28;20442;-68
2021/10/27 00:14:55;;;;;;;14.70;12.70;;;;;;;13.20;78.63;101474.75;5118640;28;20171;-68
2021/10/27 00:17:21;;;;;;;18.90;14.40;;;;;;;13.43;78.59;101485.50;5119103;28;20172;-69
2021/10/27 00:19:46;;;;;;;19.77;14.30;;;;;;;13.25;78.96;101480.06;5118139;28;20900;-69
2021/10/27 00:22:12;;;;;;;17.23;15.40;;;;;;;13.51;78.44;101480.34;5118581;28;20501;-69
2021/10/27 00:24:37;;;;;;;18.93;13.13;;;;;;;13.12;79.51;101482.53;5118870;28;20171;-69
2021/10/27 00:27:06;;;;;;;17.90;15.00;;;;;;;13.09;79.76;101490.34;5118540;28;20394;-69
2021/10/27 00:29:32;;;;;;;18.97;15.13;;;;;;;13.36;78.94;101493.28;5118182;28;20167;-69
2021/10/27 00:31:57;;;;;;;17.93;14.37;;;;;;;13.33;79.17;101496.72;5114065;28;20411;-68
2021/10/27 00:34:22;;;;;;;16.70;13.53;;;;;;;13.56;78.56;101496.13;5102705;28;20176;-66
2021/10/27 00:36:48;;;;;;;21.23;12.70;;;;;;;13.57;78.45;101492.59;5113078;28;20183;-69
2021/10/27 00:39:13;;;;;;;19.87;13.53;;;;;;;13.38;78.64;101481.06;5101008;28;20239;-69
2021/10/27 00:41:42;;;;;;;16.40;13.60;;;;;;;13.52;78.28;101487.34;5100176;28;20203;-70
2021/10/27 00:44:20;;;;;;;14.13;12.63;;;;;;;13.53;78.44;101494.34;5117802;28;20171;-69
2021/10/27 00:46:45;;;;;;;16.17;12.80;;;;;;;13.27;79.10;101489.69;5118454;28;20474;-69
2021/10/27 00:49:11;;;;;;;18.90;13.30;;;;;;;13.32;78.66;101487.97;5118602;28;20716;-69
2021/10/27 00:51:36;;;;;;;14.77;13.27;;;;;;;13.26;78.80;101489.63;5089686;28;20229;-70
2021/10/27 00:54:02;;;;;;;15.97;14.27;;;;;;;13.53;78.50;101480.34;5078018;28;20173;-69
2021/10/27 00:56:28;;;;;;;16.50;14.10;;;;;;;13.55;78.19;101481.25;5078164;28;20177;-69
2021/10/27 00:58:54;;;;;;;22.03;14.53;;;;;;;13.57;77.81;101482.13;5060428;28;20467;-69
2021/10/27 01:01:20;;;;;;;15.10;13.50;;;;;;;13.68;77.90;101487.47;5060346;28;20405;-69
2021/10/27 01:03:46;;;;;;;24.73;13.90;;;;;;;13.69;77.84;101487.47;5078048;28;20216;-69
2021/10/27 01:06:11;;;;;;;19.13;14.60;;;;;;;13.48;78.24;101491.66;5063513;28;20218;-68
2021/10/27 01:08:37;;;;;;;23.10;15.10;;;;;;;13.48;78.68;101477.69;5077491;28;20546;-69
2021/10/27 01:11:03;;;;;;;19.10;14.20;;;;;;;13.75;77.21;101478.81;5102124;28;20168;-68
2021/10/27 01:13:28;;;;;;;21.57;14.13;;;;;;;13.57;78.02;101474.25;5091596;28;20542;-66
2021/10/27 01:15:54;;;;;;;18.20;16.03;;;;;;;13.61;78.05;101473.44;5081403;28;20422;-66
2021/10/27 01:18:19;;;;;;;15.50;13.17;;;;;;;13.36;79.12;101488.91;5081731;28;20200;-66
2021/10/27 01:20:44;;;;;;;19.93;15.10;;;;;;;13.74;77.79;101472.66;5081309;28;20184;-66
2021/10/27 01:23:10;;;;;;;16.47;14.57;;;;;;;13.55;78.19;101483.88;5081371;28;20199;-66
2021/10/27 01:25:35;;;;;;;17.07;14.50;;;;;;;13.45;78.65;101481.16;5081899;28;20451;-66
2021/10/27 01:28:01;;;;;;;18.50;14.30;;;;;;;13.41;78.78;101479.38;5081473;28;20515;-65
2021/10/27 01:30:27;;;;;;;20.53;14.10;;;;;;;13.44;78.84;101473.28;5081184;28;20445;-67
2021/10/27 01:32:52;;;;;;;18.77;14.90;;;;;;;13.55;78.62;101474.25;5081900;28;20421;-66
2021/10/27 01:35:17;;;;;;;19.83;14.60;;;;;;;13.84;77.10;101475.38;5081151;28;20179;-67
2021/10/27 01:37:44;;;;;;;16.97;15.17;;;;;;;13.66;78.09;101482.22;5080843;28;20199;-66
2021/10/27 01:40:15;;;;;;;22.53;15.93;;;;;;;13.52;79.00;101483.81;5081667;28;20302;-67
2021/10/27 01:42:40;;;;;;;18.33;15.50;;;;;;;13.79;77.47;101484.06;5080796;28;20793;-67
2021/10/27 01:45:07;;;;;;;17.80;14.90;;;;;;;13.58;78.23;101486.50;5080937;28;20468;-67
2021/10/27 01:47:33;;;;;;;16.83;14.90;;;;;;;13.62;78.25;101485.66;5063940;28;20264;-66
2021/10/27 01:49:59;;;;;;;19.73;15.00;;;;;;;13.80;77.42;101479.69;5064611;28;20489;-67
2021/10/27 01:52:24;;;;;;;17.77;15.20;;;;;;;13.84;77.73;101485.84;5101581;28;20183;-67
2021/10/27 01:54:50;;;;;;;18.77;14.33;;;;;;;13.65;77.95;101475.22;5103385;28;20414;-68
2021/10/27 01:57:15;;;;;;;18.37;15.67;;;;;;;13.62;78.71;101486.53;5102376;28;20180;-66
2021/10/27 01:59:40;;;;;;;22.20;15.13;;;;;;;13.70;78.20;101481.38;5100952;28;20283;-66
2021/10/27 02:02:06;;;;;;;16.97;15.23;;;;;;;13.86;77.25;101478.91;5101310;28;20183;-67
2021/10/27 02:04:32;;;;;;;26.73;16.87;;;;;;;13.68;78.18;101480.50;5100918;28;20180;-66
2021/10/27 02:06:57;;;;;;;19.70;14.67;;;;;;;13.73;78.16;101481.38;5101138;28;20176;-67
2021/10/27 02:09:22;;;;;;;16.40;14.70;;;;;;;13.48;79.11;101475.94;5101378;28;20178;-66
2021/10/27 02:11:48;;;;;;;18.40;15.73;;;;;;;13.73;78.78;101478.78;5100520;28;20552;-66
2021/10/27 02:14:14;;;;;;;23.93;17.40;;;;;;;13.60;78.67;101474.31;5100836;28;20215;-66
2021/10/27 02:16:39;;;;;;;21.87;17.00;;;;;;;13.75;78.52;101482.28;5099890;28;20173;-66
2021/10/27 02:19:08;;;;;;;17.10;15.10;;;;;;;13.70;78.52;101480.50;5100623;28;20204;-67
2021/10/27 02:21:34;;;;;;;18.73;14.47;;;;;;;13.75;78.70;101481.44;5100395;28;20414;-66
2021/10/27 02:23:59;;;;;;;22.97;17.03;;;;;;;13.65;79.02;101475.22;5101152;28;20539;-66
2021/10/27 02:26:24;;;;;;;19.30;16.47;;;;;;;13.90;78.09;101480.69;5100413;28;20172;-67
2021/10/27 02:28:50;;;;;;;19.40;16.10;;;;;;;13.76;78.41;101473.56;5100429;28;20172;-66
2021/10/27 02:31:16;;;;;;;19.23;15.10;;;;;;;14.02;77.20;101470.28;5100740;28;20168;-66
2021/10/27 02:33:41;;;;;;;19.30;16.23;;;;;;;13.89;77.77;101469.28;5100378;28;20213;-66
2021/10/27 02:36:06;;;;;;;17.50;15.60;;;;;;;13.95;77.70;101476.31;5100365;28;20522;-67
2021/10/27 02:38:32;;;;;;;19.80;16.87;;;;;;;14.07;77.52;101480.78;5100845;28;20192;-65
2021/10/27 02:40:57;;;;;;;19.80;15.63;;;;;;;14.05;77.46;101472.91;5100840;28;20433;-68
2021/10/27 02:43:22;;;;;;;23.87;16.60;;;;;;;13.89;77.99;101469.28;5101116;28;20176;-67
2021/10/27 02:45:48;;;;;;;18.20;15.60;;;;;;;13.73;78.39;101478.78;5102586;28;20169;-66
2021/10/27 02:48:15;;;;;;;21.53;16.93;;;;;;;13.75;78.14;101474.44;5101466;28;20492;-67
2021/10/27 02:50:42;;;;;;;22.93;17.50;;;;;;;13.96;77.63;101459.72;5100337;28;20458;-67
2021/10/27 02:53:07;;;;;;;18.13;16.27;;;;;;;13.89;78.09;101461.44;5100783;28;20403;-66
2021/10/27 02:55:33;;;;;;;20.57;16.10;;;;;;;14.12;77.47;101463.34;5099954;28;20453;-66
2021/10/27 02:58:00;;;;;;;19.83;16.30;;;;;;;13.81;78.35;101466.63;5099698;28;20160;-67
2021/10/27 03:00:28;;;;;;;20.10;17.40;;;;;;;14.01;77.49;101458.03;5100073;28;20176;-67
2021/10/27 03:02:54;;;;;;;20.80;16.60;;;;;;;14.04;77.54;101459.78;5099660;28;20523;-66
2021/10/27 03:05:20;;;;;;;22.27;17.63;;;;;;;13.97;77.66;101453.63;5099816;28;20768;-66
2021/10/27 03:07:46;;;;;;;22.57;16.97;;;;;;;14.24;76.94;101455.56;5099840;28;20438;-66
2021/10/27 03:10:12;;;;;;;21.00;15.53;;;;;;;13.72;78.63;101456.06;5099740;28;20410;-66
2021/10/27 03:12:37;;;;;;;18.03;16.20;;;;;;;13.99;78.23;101451.91;5099438;28;20414;-66
2021/10/27 03:15:03;;;;;;;19.57;16.57;;;;;;;14.09;77.53;101445.84;5100022;28;20324;-66
2021/10/27 03:17:28;;;;;;;19.10;16.40;;;;;;;14.08;77.50;101448.47;5099554;28;20164;-66
2021/10/27 03:19:53;;;;;;;21.13;16.90;;;;;;;14.08;77.55;101453.69;5099445;28;20573;-66
2021/10/27 03:22:19;;;;;;;30.07;24.47;;;;;;;14.15;77.58;101455.50;5099780;28;20175;-68
2021/10/27 03:24:44;;;;;;;19.33;17.20;;;;;;;14.09;77.43;101458.09;5099571;28;20295;-66
2021/10/27 03:27:09;;;;;;;20.53;17.73;;;;;;;13.74;78.95;101459.56;5099041;28;20176;-66
2021/10/27 03:29:35;;;;;;;17.83;15.93;;;;;;;14.00;77.98;101464.13;5099668;28;20168;-66
2021/10/27 03:32:01;;;;;;;25.03;19.00;;;;;;;14.00;78.00;101456.25;5099116;28;20212;-66
2021/10/27 03:34:26;;;;;;;22.03;16.80;;;;;;;13.93;77.86;101472.81;5098366;28;20172;-66
2021/10/27 03:36:53;;;;;;;19.73;17.53;;;;;;;14.01;77.95;101468.50;5099525;28;20407;-66
2021/10/27 03:39:18;;;;;;;19.07;16.17;;;;;;;13.81;78.96;101477.13;5098866;28;20196;-66
2021/10/27 03:41:43;;;;;;;22.67;20.23;;;;;;;13.91;78.38;101477.16;5098875;28;20414;-66
2021/10/27 03:44:09;;;;;;;22.73;18.17;;;;;;;13.92;78.27;101473.69;5099746;28;20214;-66
2021/10/27 03:46:34;;;;;;;28.57;19.40;;;;;;;14.14;77.60;101478.22;5098972;28;20168;-67
2021/10/27 03:48:59;;;;;;;22.60;19.40;;;;;;;13.78;78.60;101482.31;5098995;28;20244;-66
2021/10/27 03:51:24;;;;;;;20.60;17.67;;;;;;;13.90;78.61;101486.78;5098642;28;20251;-66
2021/10/27 03:53:50;;;;;;;25.60;18.00;;;;;;;13.96;78.51;101483.31;5098627;28;20172;-66
2021/10/27 03:56:15;;;;;;;19.70;17.37;;;;;;;13.88;78.58;101491.16;5098184;28;20176;-66
2021/10/27 03:58:41;;;;;;;22.40;18.17;;;;;;;14.09;77.62;101493.03;5098924;28;20200;-67
2021/10/27 04:01:06;;;;;;;25.17;19.63;;;;;;;14.09;77.89;101495.66;5098658;28;20172;-66
2021/10/27 04:03:31;;;;;;;20.30;18.10;;;;;;;13.77;79.26;101506.78;5099106;28;20183;-66
2021/10/27 04:05:57;;;;;;;22.77;16.97;;;;;;;13.94;78.65;101503.44;5098756;28;20431;-66
2021/10/27 04:08:22;;;;;;;22.83;17.17;;;;;;;13.91;78.26;101503.38;5098480;28;20176;-66
2021/10/27 04:10:48;;;;;;;24.80;18.77;;;;;;;13.76;79.37;101510.25;5098056;28;20624;-66
2021/10/27 04:13:17;;;;;;;23.93;18.93;;;;;;;13.74;79.63;101511.97;5098717;28;20213;-66
2021/10/27 04:15:43;;;;;;;24.57;18.90;;;;;;;13.89;79.00;101505.13;5098497;28;20474;-66
2021/10/27 04:18:08;;;;;;;22.93;18.90;;;;;;;13.71;79.63;101511.97;5099097;28;20501;-66
2021/10/27 04:20:34;;;;;;;22.63;18.93;;;;;;;14.01;78.40;101509.59;5098381;28;20237;-66
2021/10/27 04:22:59;;;;;;;25.47;19.20;;;;;;;14.00;78.87;101515.69;5098450;28;20176;-67
2021/10/27 04:25:24;;;;;;;33.63;21.37;;;;;;;13.89;79.35;101513.00;5099048;28;20286;-66
2021/10/27 04:27:50;;;;;;;25.90;20.37;;;;;;;13.71;79.34;101517.19;5098580;28;20164;-67
2021/10/27 04:30:15;;;;;;;23.53;19.37;;;;;;;13.93;79.33;101506.91;5098474;28;20200;-65
2021/10/27 04:32:43;;;;;;;28.87;21.20;;;;;;;14.03;78.58;101502.59;5098723;28;20241;-66
2021/10/27 04:35:09;;;;;;;25.53;19.07;;;;;;;13.96;78.71;101509.53;5098264;28;20457;-68
2021/10/27 04:37:39;;;;;;;27.63;20.37;;;;;;;13.77;79.61;101492.78;5098209;28;20406;-67
2021/10/27 04:40:06;;;;;;;21.97;19.67;;;;;;;14.14;78.49;101491.34;5100072;28;20449;-66
2021/10/27 04:42:31;;;;;;;26.40;18.80;;;;;;;14.29;77.61;101487.94;5102365;28;20509;-66
2021/10/27 04:44:56;;;;;;;26.13;19.63;;;;;;;14.10;77.84;101484.31;5102497;28;20497;-66
2021/10/27 04:47:21;;;;;;;21.60;19.23;;;;;;;13.99;78.91;101486.00;5102950;28;20421;-66
2021/10/27 04:49:47;;;;;;;26.93;20.33;;;;;;;14.05;78.47;101491.25;5102732;28;20504;-68
2021/10/27 04:52:13;;;;;;;25.33;19.77;;;;;;;14.00;78.63;101494.72;5101878;28;20262;-67
2021/10/27 04:54:40;;;;;;;26.60;20.50;;;;;;;13.86;79.46;101489.38;5102623;28;20538;-66
2021/10/27 04:57:05;;;;;;;22.20;19.57;;;;;;;14.00;78.35;101503.44;5103228;28;20292;-67
2021/10/27 04:59:37;;;;;;;25.10;18.60;;;;;;;13.91;78.56;101499.03;5106405;28;20525;-67
2021/10/27 05:02:03;;;;;;;25.93;19.10;;;;;;;13.82;79.27;101499.81;5106823;28;20175;-67
2021/10/27 05:04:28;;;;;;;27.43;19.57;;;;;;;14.01;78.45;101505.22;5106303;28;20406;-66
2021/10/27 05:06:55;;;;;;;24.70;18.67;;;;;;;13.98;78.60;101520.94;5102546;28;20413;-66
2021/10/27 05:09:20;;;;;;;26.07;20.13;;;;;;;13.97;78.84;101519.16;5102560;28;20422;-66
2021/10/27 05:11:45;;;;;;;27.53;20.80;;;;;;;13.91;79.33;101526.97;5101785;28;20413;-66
2021/10/27 05:14:11;;;;;;;23.60;18.20;;;;;;;13.98;78.89;101528.78;5101903;28;20172;-66
2021/10/27 05:16:37;;;;;;;25.73;19.53;;;;;;;14.05;78.66;101527.97;5102622;28;20245;-66
2021/10/27 05:19:02;;;;;;;22.23;18.40;;;;;;;14.17;77.95;101526.28;5102346;28;20843;-67
2021/10/27 05:21:27;;;;;;;24.07;19.23;;;;;;;13.95;78.92;101521.78;5101682;28;20172;-66
2021/10/27 05:23:53;;;;;;;23.73;19.00;;;;;;;14.26;77.27;101522.03;5103372;28;20225;-67
2021/10/27 05:26:19;;;;;;;28.27;19.70;;;;;;;14.06;78.37;101519.25;5105706;28;20168;-68
2021/10/27 05:28:44;;;;;;;27.70;19.90;;;;;;;13.79;79.52;101519.91;5103376;28;20180;-66
2021/10/27 05:31:09;;;;;;;27.70;19.40;;;;;;;14.52;76.78;101523.94;5102229;28;20406;-65
2021/10/27 05:33:35;;;;;;;24.17;19.10;;;;;;;14.40;77.41;101529.97;5101726;28;20432;-66
2021/10/27 05:36:00;;;;;;;23.83;19.70;;;;;;;14.12;78.27;101531.50;5101293;28;20198;-66
2021/10/27 05:38:25;;;;;;;22.57;18.43;;;;;;;14.14;78.40;101527.19;5083804;28;20450;-67
2021/10/27 05:40:51;;;;;;;22.87;18.50;;;;;;;14.08;78.61;101525.34;5101488;28;20175;-67
2021/10/27 05:43:16;;;;;;;22.70;19.20;;;;;;;14.03;79.20;101527.09;5101305;28;20171;-66
2021/10/27 05:45:42;;;;;;;25.43;21.70;;;;;;;14.06;79.00;101516.63;5101757;28;20181;-66
2021/10/27 05:48:08;;;;;;;28.50;19.60;;;;;;;14.01;78.94;101514.84;5101222;28;20170;-66
2021/10/27 05:50:41;;;;;;;27.10;20.20;;;;;;;14.00;79.44;101519.19;5100455;28;20212;-66
2021/10/27 05:55:50;;;;;;;28.53;19.80;;;;;;;14.23;78.19;101515.88;5100890;28;20540;-67
2021/10/27 05:58:16;;;;;;;25.50;18.77;;;;;;;14.05;78.46;101521.84;5101033;28;20937;-67
2021/10/27 06:00:43;;;;;;;30.10;19.90;;;;;;;14.32;78.03;101522.03;5100895;28;20168;-67
2021/10/27 06:03:09;;;;;;;25.60;18.87;;;;;;;13.85;79.82;101519.94;5100908;28;20452;-67
2021/10/27 06:05:34;;;;;;;24.37;18.80;;;;;;;14.20;78.71;101521.09;5101312;28;20521;-66
2021/10/27 06:08:00;;;;;;;22.80;18.30;;;;;;;14.18;78.74;101530.69;5099965;28;20259;-66
2021/10/27 06:10:26;;;;;;;24.27;19.50;;;;;;;13.74;80.81;101525.09;5100773;28;20172;-67
2021/10/27 06:12:55;;;;;;;25.70;18.77;;;;;;;14.01;79.92;101520.94;5102039;28;20156;-66
2021/10/27 06:15:22;;;;;;;25.03;18.50;;;;;;;13.71;81.31;101527.69;5100760;28;20496;-66
2021/10/27 06:17:48;;;;;;;24.43;17.90;;;;;;;13.91;80.49;101526.97;5100560;28;20406;-66
2021/10/27 06:20:13;;;;;;;24.50;18.80;;;;;;;13.93;80.96;101535.75;5101132;28;20456;-67
2021/10/27 06:22:39;;;;;;;23.37;17.23;;;;;;;13.80;81.32;101533.00;5100480;28;20187;-67
2021/10/27 06:25:08;;;;;;;23.60;18.77;;;;;;;14.22;80.65;101530.72;5100519;28;20410;-67
2021/10/27 06:27:34;;;;;;;24.20;19.13;;;;;;;13.94;81.67;101532.25;5101027;28;20800;-68
2021/10/27 06:30:08;;;;;;;23.43;19.03;;;;;;;13.91;81.65;101534.84;5100327;28;20414;-66
2021/10/27 06:32:39;;;;;;;26.77;19.13;;;;;;;13.85;82.00;101526.94;5100181;28;20824;-66
2021/10/27 06:38:08;;;;;;;23.83;18.70;;;;;;;14.20;81.13;101532.44;5100012;28;20409;-65
2021/10/27 06:48:27;;;;;;;27.60;19.33;;;;;;;14.24;81.13;101542.09;5100167;28;20406;-66
2021/10/27 06:50:52;;;;;;;24.53;19.60;;;;;;;14.30;80.91;101539.53;5098866;28;20295;-66
2021/10/27 06:53:18;;;;;;;24.43;18.30;;;;;;;14.05;82.53;101554.19;5100153;28;20251;-68
2021/10/27 06:55:43;;;;;;;26.47;20.07;;;;;;;13.81;83.43;101558.38;5100397;28;20175;-68
2021/10/27 06:58:10;;;;;;;24.00;19.10;;;;;;;14.05;83.18;101558.56;5099769;28;20222;-65
2021/10/27 07:03:42;;;;;;;19.87;17.57;;;;;;;14.30;81.71;101554.38;5076164;28;20434;-68
2021/10/27 07:17:03;;;;;;;22.60;18.60;;;;;;;14.45;81.56;101548.34;5117059;28;20417;-69
2021/10/27 07:19:29;;;;;;;26.00;19.13;;;;;;;14.71;79.97;101539.78;5119714;28;20453;-69
2021/10/27 07:21:54;;;;;;;19.97;17.97;;;;;;;14.55;80.88;101554.56;5119595;28;20178;-70
2021/10/27 07:24:20;;;;;;;21.40;18.70;;;;;;;14.21;82.22;101551.72;5112808;28;20175;-70
2021/10/27 07:26:46;;;;;;;20.77;18.57;;;;;;;14.59;80.84;101556.34;5099402;28;20183;-70
2021/10/27 07:29:12;;;;;;;21.73;19.03;;;;;;;14.61;80.57;101557.19;5098365;28;20229;-70
2021/10/27 07:31:37;;;;;;;23.40;19.13;;;;;;;14.70;80.16;101549.41;5099396;28;20247;-70
2021/10/27 07:34:09;;;;;;;19.03;16.97;;;;;;;14.75;80.11;101547.72;5099045;28;20450;-70
2021/10/27 07:41:49;;;;;;;20.90;18.20;;;;;;;14.43;81.96;101571.97;5109385;28;20432;-69
2021/10/27 07:44:16;;;;;;;19.60;16.80;;;;;;;14.36;82.04;101575.41;5119260;28;20406;-71
2021/10/27 07:46:45;;;;;;;23.27;19.93;;;;;;;14.42;81.19;101580.72;5119080;28;20209;-70
2021/10/27 07:49:11;;;;;;;22.27;19.87;;;;;;;14.49;82.06;101581.59;5119206;28;20455;-70
2021/10/27 07:51:36;;;;;;;24.90;19.33;;;;;;;14.36;82.17;101591.16;5104123;28;20454;-68
2021/10/27 07:54:04;;;;;;;24.20;19.37;;;;;;;14.39;82.43;101590.31;5098691;28;20164;-68
2021/10/27 07:56:31;;;;;;;23.70;19.70;;;;;;;14.56;81.40;101587.78;5099425;28;20586;-69
2021/10/27 07:58:57;;;;;;;22.80;19.57;;;;;;;14.29;82.55;101600.72;5089636;28;20740;-68
2021/10/27 08:01:22;;;;;;;21.73;19.10;;;;;;;14.37;82.17;101603.41;5077465;28;20423;-69
2021/10/27 08:03:47;;;;;;;21.03;18.93;;;;;;;14.55;81.79;101602.66;5078652;28;20181;-70
2021/10/27 08:06:13;;;;;;;23.10;19.60;;;;;;;14.63;81.88;101595.75;5080724;28;20165;-69
2021/10/27 08:08:38;;;;;;;21.87;18.17;;;;;;;14.34;83.21;101605.97;5080656;28;20177;-68
2021/10/27 08:11:04;;;;;;;22.53;19.13;;;;;;;14.31;82.61;101609.50;5081127;28;20172;-68
2021/10/27 08:13:29;;;;;;;24.07;19.50;;;;;;;14.19;83.88;101614.59;5079690;28;20176;-69
2021/10/27 08:15:56;;;;;;;22.73;18.70;;;;;;;14.59;82.56;101619.31;5078455;28;20219;-66
2021/10/27 08:18:21;;;;;;;23.30;18.90;;;;;;;14.24;83.84;101623.41;5078227;28;20185;-68
2021/10/27 08:20:48;;;;;;;24.70;19.77;;;;;;;14.01;84.88;101625.81;5078092;28;20494;-66
2021/10/27 08:23:15;;;;;;;25.37;17.87;;;;;;;14.43;83.29;101624.44;5078217;28;20165;-68
2021/10/27 08:25:43;;;;;;;21.03;18.30;;;;;;;14.46;83.36;101626.19;5078415;28;20413;-67
2021/10/27 08:28:15;;;;;;;22.87;19.20;;;;;;;14.39;83.16;101627.03;5078001;28;20419;-66
2021/10/27 08:31:00;;;;;;;22.87;18.30;;;;;;;14.68;82.45;101618.50;5077468;28;20426;-67
2021/10/27 08:35:58;;;;;;;22.97;18.20;;;;;;;14.53;82.95;101629.75;5077996;28;20427;-68
2021/10/27 08:38:24;;;;;;;22.83;16.40;;;;;;;14.58;82.17;101622.78;5077835;28;20839;-69
2021/10/27 08:40:50;;;;;;;19.20;16.57;;;;;;;14.58;82.91;101626.28;5077768;28;20476;-68
2021/10/27 08:43:16;;;;;;;21.40;17.83;;;;;;;14.34;83.86;101626.09;5078017;28;20709;-67
2021/10/27 08:45:41;;;;;;;28.60;20.40;;;;;;;14.75;82.34;101618.56;5077851;28;20169;-69
2021/10/27 08:48:08;;;;;;;22.77;17.80;;;;;;;14.41;83.70;101620.03;5077468;28;20257;-67
2021/10/27 08:50:34;;;;;;;20.20;17.67;;;;;;;14.70;82.76;101622.91;5077537;28;20484;-68
2021/10/27 08:53:01;;;;;;;18.63;16.70;;;;;;;14.77;82.53;101621.22;5060198;28;20541;-68
2021/10/27 08:55:27;;;;;;;18.70;16.53;;;;;;;14.41;83.97;101631.41;5077819;28;20170;-67
2021/10/27 08:57:53;;;;;;;20.33;17.07;;;;;;;14.61;83.38;101625.44;5077421;28;20430;-66
2021/10/27 09:02:58;;;;;;;21.40;18.30;;;;;;;14.62;84.01;101622.81;5077660;28;20922;-67
2021/10/27 09:05:42;;;;;;;23.50;18.83;;;;;;;14.49;84.54;101629.72;5062201;28;20255;-65
2021/10/27 09:36:19;;;;;;;18.03;15.40;;;;;;;14.41;84.63;101634.03;5080914;28;20418;-66
2021/10/27 09:39:24;;;;;;;15.37;13.67;;;;;;;14.97;82.79;101630.06;5080636;28;20458;-67
2021/10/27 10:06:48;;;;;;;17.00;15.20;;;;;;;14.53;85.35;101642.88;5080430;28;20502;-68
2021/10/27 10:09:14;;;;;;;17.23;15.53;;;;;;;14.72;84.60;101636.94;5063049;28;20415;-69
2021/10/27 10:11:40;;;;;;;18.10;16.30;;;;;;;14.43;85.25;101645.41;5080332;28;20437;-68
2021/10/27 10:14:08;;;;;;;19.50;16.43;;;;;;;14.69;84.50;101636.88;5080268;28;20684;-68
2021/10/27 10:16:41;;;;;;;17.77;16.07;;;;;;;14.64;84.27;101644.75;5080325;28;20461;-68
2021/10/27 10:19:12;;;;;;;20.97;17.20;;;;;;;14.80;84.27;101648.38;5080159;28;20863;-69
2021/10/27 10:21:44;;;;;;;18.17;16.33;;;;;;;15.10;83.26;101644.16;5080091;28;20658;-68
2021/10/27 10:24:19;;;;;;;19.63;17.53;;;;;;;15.18;82.54;101645.94;5080627;28;20450;-68
2021/10/27 10:26:45;;;;;;;20.80;16.87;;;;;;;15.11;82.62;101647.66;5079899;28;20419;-72
2021/10/27 10:29:44;;;;;;;20.23;16.53;;;;;;;14.70;84.13;101659.66;5084068;28;20514;-70
2021/10/27 10:32:19;;;;;;;17.47;15.77;;;;;;;14.79;84.13;101654.47;5082117;28;20831;-69
2021/10/27 10:34:49;;;;;;;20.70;16.63;;;;;;;14.96;82.90;101643.19;5100191;28;20885;-68
2021/10/27 10:37:37;;;;;;;20.00;17.50;;;;;;;14.93;83.57;101648.44;5099412;28;20415;-69
2021/10/27 10:40:43;;;;;;;20.20;17.50;;;;;;;14.74;84.47;101665.81;5082578;28;20485;-72
2021/10/27 10:43:21;;;;;;;21.67;17.53;;;;;;;14.98;82.95;101670.34;5082945;28;20406;-70
2021/10/27 10:55:26;;;;;;;19.73;17.70;;;;;;;15.34;81.93;101658.28;5092568;28;20407;-72
2021/10/27 10:57:26;;;;;;;18.13;16.20;;;;;;;15.31;81.40;101663.53;5079711;28;20533;-71
2021/10/27 11:00:40;;;;;;;18.33;16.40;;;;;;;15.09;81.77;101665.16;5079408;28;20520;-71
2021/10/27 11:23:33;;;;;;;16.10;14.60;;;;;;;15.30;80.17;101665.28;5083156;28;20428;-69
2021/10/27 11:40:17;;;;;;;16.03;14.43;;;;;;;14.92;82.28;101667.69;5061410;28;20462;-70
2021/10/27 11:43:34;;;;;;;22.90;14.53;;;;;;;15.14;81.34;101671.31;5063672;28;20460;-71
2021/10/27 11:45:41;;;;;;;15.43;14.03;;;;;;;14.99;81.93;101674.72;5073054;28;20422;-70
2021/10/27 11:48:25;;;;;;;16.30;14.63;;;;;;;15.20;80.47;101668.72;5061700;28;20446;-70
2021/10/27 11:50:51;;;;;;;20.03;14.90;;;;;;;15.41;80.11;101667.97;5077945;28;20454;-70
2021/10/27 11:53:25;;;;;;;16.03;14.53;;;;;;;15.08;80.87;101656.38;5078381;28;20427;-69
2021/10/27 11:55:51;;;;;;;16.70;15.20;;;;;;;15.02;81.52;101661.63;5078362;28;20169;-71
2021/10/27 11:58:16;;;;;;;15.73;14.20;;;;;;;15.23;80.71;101658.22;5060637;28;20419;-70
2021/10/27 12:00:44;;;;;;;18.20;15.77;;;;;;;15.56;79.56;101654.00;5078423;28;20469;-70
2021/10/27 12:03:20;;;;;;;14.37;13.07;;;;;;;15.18;80.76;101664.31;5078159;28;20507;-71
2021/10/27 12:05:55;;;;;;;15.33;13.93;;;;;;;15.07;81.51;101659.91;5078330;28;20407;-70
2021/10/27 12:19:05;;;;;;;15.70;14.20;;;;;;;15.09;81.02;101655.53;5078054;28;20843;-71
2021/10/27 12:21:30;;;;;;;17.37;15.30;;;;;;;15.14;81.31;101659.06;5077880;28;20430;-69
2021/10/27 12:23:56;;;;;;;17.23;15.30;;;;;;;15.16;80.94;101648.56;5077940;28;20439;-69
2021/10/27 12:26:24;;;;;;;17.17;15.47;;;;;;;15.31;80.27;101651.25;5077886;28;20494;-69
2021/10/27 12:29:11;;;;;;;17.10;15.13;;;;;;;15.19;81.10;101647.72;5078072;28;20502;-69
2021/10/27 12:31:37;;;;;;;17.43;15.57;;;;;;;15.12;81.63;101645.03;5077566;28;20415;-68
2021/10/27 12:34:18;;;;;;;17.87;15.50;;;;;;;15.20;81.14;101639.84;5077796;28;20673;-69
2021/10/27 12:36:43;;;;;;;16.90;15.30;;;;;;;15.54;79.68;101639.09;5060545;28;20251;-69
2021/10/27 12:39:20;;;;;;;16.60;15.00;;;;;;;15.36;79.99;101639.88;5077856;28;20554;-69
2021/10/27 12:42:10;;;;;;;20.37;16.30;;;;;;;15.08;80.91;101638.00;5077630;28;20180;-68
2021/10/27 12:44:50;;;;;;;16.60;14.90;;;;;;;15.11;81.79;101639.78;5077774;28;20498;-68
2021/10/27 12:47:21;;;;;;;17.90;16.10;;;;;;;15.09;82.03;101645.03;5077726;28;20476;-69
2021/10/27 12:49:48;;;;;;;18.27;15.40;;;;;;;15.06;81.99;101652.91;5077891;28;20438;-69
2021/10/27 12:52:29;;;;;;;18.30;16.40;;;;;;;15.22;81.28;101650.34;5096265;28;20454;-69
2021/10/27 12:55:07;;;;;;;20.13;15.70;;;;;;;15.21;81.48;101645.94;5097337;28;20426;-69
2021/10/27 12:57:49;;;;;;;17.00;15.20;;;;;;;14.87;83.09;101641.41;5097891;28;20409;-72
2021/10/27 13:00:22;;;;;;;18.43;16.63;;;;;;;15.13;82.29;101646.78;5097972;28;20804;-69
2021/10/27 13:03:10;;;;;;;17.50;15.67;;;;;;;15.10;82.27;101633.66;5102110;28;20434;-70
2021/10/27 13:05:42;;;;;;;18.47;16.67;;;;;;;14.97;82.69;101631.84;5101843;28;20853;-68
2021/10/27 13:08:22;;;;;;;17.60;16.00;;;;;;;14.90;82.92;101640.56;5101785;28;20418;-70
2021/10/27 13:11:01;;;;;;;17.50;15.67;;;;;;;15.22;82.86;101630.22;5101737;28;20442;-71
2021/10/27 13:16:07;;;;;;;19.40;17.60;;;;;;;14.92;83.29;101639.66;5100999;28;20792;-72
2021/10/27 13:18:57;;;;;;;20.40;17.63;;;;;;;14.81;84.50;101638.72;5101606;28;20462;-69
2021/10/27 13:29:27;;;;;;;20.27;18.27;;;;;;;14.86;84.18;101634.41;5101769;28;20804;-70
2021/10/27 13:32:11;;;;;;;24.80;17.97;;;;;;;15.13;82.92;101641.53;5101390;28;20418;-69
2021/10/27 13:34:36;;;;;;;18.83;17.00;;;;;;;14.89;83.91;101641.41;5101551;28;20437;-70
2021/10/27 13:37:05;;;;;;;18.63;16.73;;;;;;;14.90;83.56;101649.28;5101262;28;20410;-69
2021/10/27 13:39:30;;;;;;;19.50;17.47;;;;;;;14.94;83.56;101643.19;5101143;28;20275;-69
2021/10/27 13:42:01;;;;;;;24.60;17.67;;;;;;;14.74;83.93;101640.44;5101029;28;20433;-70
2021/10/27 13:44:32;;;;;;;19.07;17.03;;;;;;;14.70;83.90;101636.03;5100322;28;20175;-69
2021/10/27 13:58:32;;;;;;;18.83;16.83;;;;;;;14.97;82.70;101632.69;5100851;28;20418;-69
2021/10/27 14:09:17;;;;;;;15.93;14.50;;;;;;;15.10;81.42;101623.16;5100700;28;20407;-69